sensor_id;sensor_type;location;lat;lon;timestamp;temperature;humidity
14555;DHT22;7364;50.870;4.722;2023-08-08T00:01:47;15.70;99.90
14555;DHT22;7364;50.870;4.722;2023-08-08T00:04:14;15.60;99.90
14555;DHT22;7364;50.870;4.722;2023-08-08T00:06:43;15.70;99.90
14555;DHT22;7364;50.870;4.722;2023-08-08T00:09:10;15.70;99.90
14555;DHT22;7364;50.870;4.722;2023-08-08T00:11:41;15.50;99.90
14555;DHT22;7364;50.870;4.722;2023-08-08T00:14:09;15.30;99.90
14555;DHT22;7364;50.870;4.722;2023-08-08T00:16:36;15.40;99.90
14555;DHT22;7364;50.870;4.722;2023-08-08T00:19:03;15.30;99.90
14555;DHT22;7364;50.870;4.722;2023-08-08T00:21:30;15.20;99.90
14555;DHT22;7364;50.870;4.722;2023-08-08T00:23:59;15.30;99.90
14555;DHT22;7364;50.870;4.722;2023-08-08T00:26:26;15.30;99.90
14555;DHT22;7364;50.870;4.722;2023-08-08T00:28:54;15.20;99.90
14555;DHT22;7364;50.870;4.722;2023-08-08T00:31:21;15.20;99.90
14555;DHT22;7364;50.870;4.722;2023-08-08T00:33:48;15.10;99.90
14555;DHT22;7364;50.870;4.722;2023-08-08T00:36:16;15.10;99.90
14555;DHT22;7364;50.870;4.722;2023-08-08T00:38:43;15.20;99.90
14555;DHT22;7364;50.870;4.722;2023-08-08T00:41:12;15.10;99.90
14555;DHT22;7364;50.870;4.722;2023-08-08T00:43:39;15.20;99.90
14555;DHT22;7364;50.870;4.722;2023-08-08T00:46:07;15.20;99.90
14555;DHT22;7364;50.870;4.722;2023-08-08T00:48:34;15.00;99.90
14555;DHT22;7364;50.870;4.722;2023-08-08T00:51:02;14.90;99.90
14555;DHT22;7364;50.870;4.722;2023-08-08T00:53:32;14.90;99.90
14555;DHT22;7364;50.870;4.722;2023-08-08T00:56:00;14.80;99.90
14555;DHT22;7364;50.870;4.722;2023-08-08T00:58:28;14.80;99.90
14555;DHT22;7364;50.870;4.722;2023-08-08T01:00:56;14.70;99.90
14555;DHT22;7364;50.870;4.722;2023-08-08T01:03:25;14.80;99.90
14555;DHT22;7364;50.870;4.722;2023-08-08T01:06:03;14.70;99.90
14555;DHT22;7364;50.870;4.722;2023-08-08T01:08:38;14.80;99.90
14555;DHT22;7364;50.870;4.722;2023-08-08T01:11:06;14.70;99.90
14555;DHT22;7364;50.870;4.722;2023-08-08T01:13:36;14.60;99.90
14555;DHT22;7364;50.870;4.722;2023-08-08T01:16:05;14.60;99.90
14555;DHT22;7364;50.870;4.722;2023-08-08T01:18:33;14.50;99.90
14555;DHT22;7364;50.870;4.722;2023-08-08T01:21:01;14.60;99.90
14555;DHT22;7364;50.870;4.722;2023-08-08T01:23:34;14.60;99.90
14555;DHT22;7364;50.870;4.722;2023-08-08T01:26:10;14.60;99.90
14555;DHT22;7364;50.870;4.722;2023-08-08T01:28:38;14.80;99.90
14555;DHT22;7364;50.870;4.722;2023-08-08T01:31:05;14.80;99.90
14555;DHT22;7364;50.870;4.722;2023-08-08T01:33:33;14.80;99.90
14555;DHT22;7364;50.870;4.722;2023-08-08T01:36:04;14.90;99.90
14555;DHT22;7364;50.870;4.722;2023-08-08T01:38:40;14.80;99.90
14555;DHT22;7364;50.870;4.722;2023-08-08T01:41:09;14.70;99.90
14555;DHT22;7364;50.870;4.722;2023-08-08T01:43:38;14.70;99.90
14555;DHT22;7364;50.870;4.722;2023-08-08T01:46:06;14.60;99.90
14555;DHT22;7364;50.870;4.722;2023-08-08T01:48:33;14.60;99.90
14555;DHT22;7364;50.870;4.722;2023-08-08T01:51:01;14.50;99.90
14555;DHT22;7364;50.870;4.722;2023-08-08T01:53:28;14.40;99.90
14555;DHT22;7364;50.870;4.722;2023-08-08T01:55:56;14.40;99.90
14555;DHT22;7364;50.870;4.722;2023-08-08T01:58:24;14.40;99.90
14555;DHT22;7364;50.870;4.722;2023-08-08T02:00:52;14.40;99.90
14555;DHT22;7364;50.870;4.722;2023-08-08T02:03:19;14.40;99.90
14555;DHT22;7364;50.870;4.722;2023-08-08T02:05:47;14.40;99.90
14555;DHT22;7364;50.870;4.722;2023-08-08T02:08:14;14.40;99.90
14555;DHT22;7364;50.870;4.722;2023-08-08T02:10:41;14.40;99.90
14555;DHT22;7364;50.870;4.722;2023-08-08T02:13:09;14.40;99.90
14555;DHT22;7364;50.870;4.722;2023-08-08T02:15:37;14.50;99.90
14555;DHT22;7364;50.870;4.722;2023-08-08T02:18:05;14.50;99.90
14555;DHT22;7364;50.870;4.722;2023-08-08T02:20:35;14.50;99.90
14555;DHT22;7364;50.870;4.722;2023-08-08T02:23:02;14.50;99.90
14555;DHT22;7364;50.870;4.722;2023-08-08T02:25:30;14.50;99.90
14555;DHT22;7364;50.870;4.722;2023-08-08T02:27:57;14.50;99.90
14555;DHT22;7364;50.870;4.722;2023-08-08T02:30:24;14.50;99.90
14555;DHT22;7364;50.870;4.722;2023-08-08T02:32:53;14.50;99.90
14555;DHT22;7364;50.870;4.722;2023-08-08T02:35:20;14.50;99.90
14555;DHT22;7364;50.870;4.722;2023-08-08T02:37:49;14.60;99.90
14555;DHT22;7364;50.870;4.722;2023-08-08T02:40:16;14.60;99.90
14555;DHT22;7364;50.870;4.722;2023-08-08T02:42:43;14.50;99.90
14555;DHT22;7364;50.870;4.722;2023-08-08T02:45:11;14.50;99.90
14555;DHT22;7364;50.870;4.722;2023-08-08T02:47:38;14.50;99.90
14555;DHT22;7364;50.870;4.722;2023-08-08T02:50:07;14.50;99.90
14555;DHT22;7364;50.870;4.722;2023-08-08T02:52:35;14.60;99.90
14555;DHT22;7364;50.870;4.722;2023-08-08T02:55:02;14.60;99.90
14555;DHT22;7364;50.870;4.722;2023-08-08T02:57:30;14.60;99.90
14555;DHT22;7364;50.870;4.722;2023-08-08T02:59:57;14.50;99.90
14555;DHT22;7364;50.870;4.722;2023-08-08T03:02:25;14.50;99.90
14555;DHT22;7364;50.870;4.722;2023-08-08T03:04:52;14.60;99.90
14555;DHT22;7364;50.870;4.722;2023-08-08T03:07:21;14.50;99.90
14555;DHT22;7364;50.870;4.722;2023-08-08T03:09:48;14.30;99.90
14555;DHT22;7364;50.870;4.722;2023-08-08T03:12:16;14.20;99.90
14555;DHT22;7364;50.870;4.722;2023-08-08T03:14:43;14.20;99.90
14555;DHT22;7364;50.870;4.722;2023-08-08T03:17:10;14.30;99.90
14555;DHT22;7364;50.870;4.722;2023-08-08T03:19:37;14.20;99.90
14555;DHT22;7364;50.870;4.722;2023-08-08T03:22:05;14.30;99.90
14555;DHT22;7364;50.870;4.722;2023-08-08T03:24:34;14.30;99.90
14555;DHT22;7364;50.870;4.722;2023-08-08T03:27:01;14.30;99.90
14555;DHT22;7364;50.870;4.722;2023-08-08T03:29:28;14.30;99.90
14555;DHT22;7364;50.870;4.722;2023-08-08T03:31:56;14.50;99.90
14555;DHT22;7364;50.870;4.722;2023-08-08T03:34:23;14.40;99.90
14555;DHT22;7364;50.870;4.722;2023-08-08T03:36:50;14.40;99.90
14555;DHT22;7364;50.870;4.722;2023-08-08T03:39:18;14.40;99.90
14555;DHT22;7364;50.870;4.722;2023-08-08T03:41:46;14.30;99.90
14555;DHT22;7364;50.870;4.722;2023-08-08T03:44:14;14.30;99.90
14555;DHT22;7364;50.870;4.722;2023-08-08T03:46:41;14.30;99.90
14555;DHT22;7364;50.870;4.722;2023-08-08T03:49:08;14.30;99.90
14555;DHT22;7364;50.870;4.722;2023-08-08T03:51:36;14.20;99.90
14555;DHT22;7364;50.870;4.722;2023-08-08T03:54:03;14.10;99.90
14555;DHT22;7364;50.870;4.722;2023-08-08T03:56:31;14.10;99.90
14555;DHT22;7364;50.870;4.722;2023-08-08T03:59:00;14.10;99.90
14555;DHT22;7364;50.870;4.722;2023-08-08T04:01:28;14.20;99.90
14555;DHT22;7364;50.870;4.722;2023-08-08T04:03:55;14.20;99.90
14555;DHT22;7364;50.870;4.722;2023-08-08T04:06:22;14.00;99.90
14555;DHT22;7364;50.870;4.722;2023-08-08T04:08:50;14.00;99.90
14555;DHT22;7364;50.870;4.722;2023-08-08T04:11:17;14.00;99.90
14555;DHT22;7364;50.870;4.722;2023-08-08T04:13:44;14.00;99.90
14555;DHT22;7364;50.870;4.722;2023-08-08T04:16:13;14.00;99.90
14555;DHT22;7364;50.870;4.722;2023-08-08T04:18:41;14.00;99.90
14555;DHT22;7364;50.870;4.722;2023-08-08T04:21:08;14.00;99.90
14555;DHT22;7364;50.870;4.722;2023-08-08T04:23:36;14.00;99.90
14555;DHT22;7364;50.870;4.722;2023-08-08T04:26:03;14.00;99.90
14555;DHT22;7364;50.870;4.722;2023-08-08T04:28:30;14.00;99.90
14555;DHT22;7364;50.870;4.722;2023-08-08T04:30:57;14.10;99.90
14555;DHT22;7364;50.870;4.722;2023-08-08T04:33:26;14.00;99.90
14555;DHT22;7364;50.870;4.722;2023-08-08T04:35:53;13.90;99.90
14555;DHT22;7364;50.870;4.722;2023-08-08T04:38:21;14.00;99.90
14555;DHT22;7364;50.870;4.722;2023-08-08T04:40:48;14.00;99.90
14555;DHT22;7364;50.870;4.722;2023-08-08T04:43:16;14.10;99.90
14555;DHT22;7364;50.870;4.722;2023-08-08T04:45:43;14.10;99.90
14555;DHT22;7364;50.870;4.722;2023-08-08T04:48:10;14.10;99.90
14555;DHT22;7364;50.870;4.722;2023-08-08T04:50:39;14.10;99.90
14555;DHT22;7364;50.870;4.722;2023-08-08T04:53:07;14.20;99.90
14555;DHT22;7364;50.870;4.722;2023-08-08T04:55:34;14.10;99.90
14555;DHT22;7364;50.870;4.722;2023-08-08T04:58:01;14.10;99.90
14555;DHT22;7364;50.870;4.722;2023-08-08T05:00:29;14.20;99.90
14555;DHT22;7364;50.870;4.722;2023-08-08T05:02:56;14.20;99.90
14555;DHT22;7364;50.870;4.722;2023-08-08T05:05:23;14.30;99.90
14555;DHT22;7364;50.870;4.722;2023-08-08T05:07:52;14.30;99.90
14555;DHT22;7364;50.870;4.722;2023-08-08T05:10:19;14.20;99.90
14555;DHT22;7364;50.870;4.722;2023-08-08T05:12:47;14.40;99.90
14555;DHT22;7364;50.870;4.722;2023-08-08T05:15:14;14.40;99.90
14555;DHT22;7364;50.870;4.722;2023-08-08T05:17:41;14.40;99.90
14555;DHT22;7364;50.870;4.722;2023-08-08T05:20:10;14.40;99.90
14555;DHT22;7364;50.870;4.722;2023-08-08T05:22:37;14.30;99.90
14555;DHT22;7364;50.870;4.722;2023-08-08T05:25:07;14.40;99.90
14555;DHT22;7364;50.870;4.722;2023-08-08T05:27:35;14.40;99.90
14555;DHT22;7364;50.870;4.722;2023-08-08T05:30:02;14.30;99.90
14555;DHT22;7364;50.870;4.722;2023-08-08T05:32:30;14.40;99.90
14555;DHT22;7364;50.870;4.722;2023-08-08T05:34:57;14.40;99.90
14555;DHT22;7364;50.870;4.722;2023-08-08T05:37:26;14.50;99.90
14555;DHT22;7364;50.870;4.722;2023-08-08T05:39:53;14.60;99.90
14555;DHT22;7364;50.870;4.722;2023-08-08T05:42:22;14.60;99.90
14555;DHT22;7364;50.870;4.722;2023-08-08T05:44:49;14.60;99.90
14555;DHT22;7364;50.870;4.722;2023-08-08T05:47:17;14.60;99.90
14555;DHT22;7364;50.870;4.722;2023-08-08T05:49:44;14.50;99.90
14555;DHT22;7364;50.870;4.722;2023-08-08T05:52:12;14.50;99.90
14555;DHT22;7364;50.870;4.722;2023-08-08T05:54:39;14.50;99.90
14555;DHT22;7364;50.870;4.722;2023-08-08T05:57:06;14.50;99.90
14555;DHT22;7364;50.870;4.722;2023-08-08T05:59:35;14.70;99.90
14555;DHT22;7364;50.870;4.722;2023-08-08T06:02:03;14.80;99.90
14555;DHT22;7364;50.870;4.722;2023-08-08T06:04:30;14.80;99.90
14555;DHT22;7364;50.870;4.722;2023-08-08T06:06:57;15.00;99.90
14555;DHT22;7364;50.870;4.722;2023-08-08T06:09:25;15.10;99.90
14555;DHT22;7364;50.870;4.722;2023-08-08T06:11:53;15.10;99.90
14555;DHT22;7364;50.870;4.722;2023-08-08T06:14:20;15.20;99.90
14555;DHT22;7364;50.870;4.722;2023-08-08T06:16:50;15.30;99.90
14555;DHT22;7364;50.870;4.722;2023-08-08T06:19:17;15.30;99.90
14555;DHT22;7364;50.870;4.722;2023-08-08T06:21:46;15.30;99.90
14555;DHT22;7364;50.870;4.722;2023-08-08T06:24:14;15.20;99.90
14555;DHT22;7364;50.870;4.722;2023-08-08T06:26:41;15.20;99.90
14555;DHT22;7364;50.870;4.722;2023-08-08T06:29:09;15.40;99.90
14555;DHT22;7364;50.870;4.722;2023-08-08T06:31:36;15.50;99.90
14555;DHT22;7364;50.870;4.722;2023-08-08T06:34:05;15.30;99.90
14555;DHT22;7364;50.870;4.722;2023-08-08T06:36:32;15.30;99.90
14555;DHT22;7364;50.870;4.722;2023-08-08T06:39:00;15.20;99.90
14555;DHT22;7364;50.870;4.722;2023-08-08T06:41:27;15.20;99.90
14555;DHT22;7364;50.870;4.722;2023-08-08T06:43:54;15.20;99.90
14555;DHT22;7364;50.870;4.722;2023-08-08T06:46:22;15.30;99.90
14555;DHT22;7364;50.870;4.722;2023-08-08T06:48:50;15.30;99.90
14555;DHT22;7364;50.870;4.722;2023-08-08T06:51:23;15.30;99.90
14555;DHT22;7364;50.870;4.722;2023-08-08T06:53:50;15.50;99.90
14555;DHT22;7364;50.870;4.722;2023-08-08T06:56:18;15.80;99.90
14555;DHT22;7364;50.870;4.722;2023-08-08T06:58:45;15.80;99.90
14555;DHT22;7364;50.870;4.722;2023-08-08T07:01:13;15.70;99.90
14555;DHT22;7364;50.870;4.722;2023-08-08T07:03:40;15.70;99.90
14555;DHT22;7364;50.870;4.722;2023-08-08T07:06:09;15.90;99.90
14555;DHT22;7364;50.870;4.722;2023-08-08T07:08:38;16.00;99.90
14555;DHT22;7364;50.870;4.722;2023-08-08T07:11:06;16.10;99.90
14555;DHT22;7364;50.870;4.722;2023-08-08T07:13:33;16.10;99.90
14555;DHT22;7364;50.870;4.722;2023-08-08T07:16:00;16.20;99.90
14555;DHT22;7364;50.870;4.722;2023-08-08T07:18:28;16.20;99.90
14555;DHT22;7364;50.870;4.722;2023-08-08T07:20:55;16.60;99.90
14555;DHT22;7364;50.870;4.722;2023-08-08T07:23:23;16.70;99.90
14555;DHT22;7364;50.870;4.722;2023-08-08T07:25:51;16.90;99.90
14555;DHT22;7364;50.870;4.722;2023-08-08T07:28:19;17.00;99.90
14555;DHT22;7364;50.870;4.722;2023-08-08T07:30:46;17.10;99.90
14555;DHT22;7364;50.870;4.722;2023-08-08T07:33:14;16.80;99.90
14555;DHT22;7364;50.870;4.722;2023-08-08T07:35:41;16.80;99.90
14555;DHT22;7364;50.870;4.722;2023-08-08T07:38:08;16.60;99.90
14555;DHT22;7364;50.870;4.722;2023-08-08T07:40:36;16.70;99.90
14555;DHT22;7364;50.870;4.722;2023-08-08T07:43:05;16.60;99.90
14555;DHT22;7364;50.870;4.722;2023-08-08T07:45:32;16.60;99.90
14555;DHT22;7364;50.870;4.722;2023-08-08T07:47:59;16.80;99.90
14555;DHT22;7364;50.870;4.722;2023-08-08T07:50:27;16.80;99.90
14555;DHT22;7364;50.870;4.722;2023-08-08T07:52:54;16.70;99.90
14555;DHT22;7364;50.870;4.722;2023-08-08T07:55:21;16.70;99.90
14555;DHT22;7364;50.870;4.722;2023-08-08T07:57:48;16.60;99.90
14555;DHT22;7364;50.870;4.722;2023-08-08T08:00:18;16.80;99.90
14555;DHT22;7364;50.870;4.722;2023-08-08T08:02:46;16.80;99.90
14555;DHT22;7364;50.870;4.722;2023-08-08T08:05:13;16.70;99.90
14555;DHT22;7364;50.870;4.722;2023-08-08T08:07:41;16.80;99.90
14555;DHT22;7364;50.870;4.722;2023-08-08T08:10:10;17.10;99.90
14555;DHT22;7364;50.870;4.722;2023-08-08T08:12:39;17.50;99.90
14555;DHT22;7364;50.870;4.722;2023-08-08T08:15:09;17.50;99.90
14555;DHT22;7364;50.870;4.722;2023-08-08T08:17:37;17.70;99.90
14555;DHT22;7364;50.870;4.722;2023-08-08T08:20:06;17.70;99.90
14555;DHT22;7364;50.870;4.722;2023-08-08T08:22:37;17.70;99.90
14555;DHT22;7364;50.870;4.722;2023-08-08T08:25:05;17.70;99.90
14555;DHT22;7364;50.870;4.722;2023-08-08T08:27:35;17.40;99.90
14555;DHT22;7364;50.870;4.722;2023-08-08T08:30:03;17.50;99.90
14555;DHT22;7364;50.870;4.722;2023-08-08T08:32:32;17.30;99.90
14555;DHT22;7364;50.870;4.722;2023-08-08T08:35:02;17.40;99.90
14555;DHT22;7364;50.870;4.722;2023-08-08T08:37:32;17.50;99.90
14555;DHT22;7364;50.870;4.722;2023-08-08T08:39:59;17.90;99.90
14555;DHT22;7364;50.870;4.722;2023-08-08T08:42:28;17.90;99.90
14555;DHT22;7364;50.870;4.722;2023-08-08T08:44:57;17.70;99.90
14555;DHT22;7364;50.870;4.722;2023-08-08T08:47:25;17.70;99.90
14555;DHT22;7364;50.870;4.722;2023-08-08T08:49:53;17.90;99.90
14555;DHT22;7364;50.870;4.722;2023-08-08T08:52:22;18.00;99.90
14555;DHT22;7364;50.870;4.722;2023-08-08T08:54:50;18.10;99.90
14555;DHT22;7364;50.870;4.722;2023-08-08T08:57:18;18.00;99.90
14555;DHT22;7364;50.870;4.722;2023-08-08T08:59:45;17.80;99.90
14555;DHT22;7364;50.870;4.722;2023-08-08T09:02:12;17.70;99.90
14555;DHT22;7364;50.870;4.722;2023-08-08T09:04:40;17.70;99.90
14555;DHT22;7364;50.870;4.722;2023-08-08T09:07:09;17.60;99.90
14555;DHT22;7364;50.870;4.722;2023-08-08T09:09:38;17.60;99.90
14555;DHT22;7364;50.870;4.722;2023-08-08T09:12:06;17.70;99.90
14555;DHT22;7364;50.870;4.722;2023-08-08T09:14:34;17.70;99.90
14555;DHT22;7364;50.870;4.722;2023-08-08T09:17:10;17.80;99.90
14555;DHT22;7364;50.870;4.722;2023-08-08T09:19:42;17.90;99.90
14555;DHT22;7364;50.870;4.722;2023-08-08T09:22:11;17.90;99.90
14555;DHT22;7364;50.870;4.722;2023-08-08T09:24:41;18.00;99.90
14555;DHT22;7364;50.870;4.722;2023-08-08T09:27:09;18.00;99.90
14555;DHT22;7364;50.870;4.722;2023-08-08T09:29:40;17.90;99.90
14555;DHT22;7364;50.870;4.722;2023-08-08T09:32:08;18.00;99.90
14555;DHT22;7364;50.870;4.722;2023-08-08T09:34:36;18.30;99.90
14555;DHT22;7364;50.870;4.722;2023-08-08T09:37:03;18.50;99.90
14555;DHT22;7364;50.870;4.722;2023-08-08T09:39:33;18.60;99.90
14555;DHT22;7364;50.870;4.722;2023-08-08T09:42:03;18.80;99.90
14555;DHT22;7364;50.870;4.722;2023-08-08T09:44:31;19.00;99.90
14555;DHT22;7364;50.870;4.722;2023-08-08T09:47:01;19.10;99.90
14555;DHT22;7364;50.870;4.722;2023-08-08T09:49:29;19.40;99.90
14555;DHT22;7364;50.870;4.722;2023-08-08T09:51:58;19.50;99.90
14555;DHT22;7364;50.870;4.722;2023-08-08T09:54:26;19.40;99.90
14555;DHT22;7364;50.870;4.722;2023-08-08T09:56:55;19.00;99.90
14555;DHT22;7364;50.870;4.722;2023-08-08T09:59:24;18.70;99.90
14555;DHT22;7364;50.870;4.722;2023-08-08T10:01:52;18.90;99.90
14555;DHT22;7364;50.870;4.722;2023-08-08T10:04:20;18.90;99.90
14555;DHT22;7364;50.870;4.722;2023-08-08T10:06:49;19.10;99.90
14555;DHT22;7364;50.870;4.722;2023-08-08T10:09:16;19.00;99.90
14555;DHT22;7364;50.870;4.722;2023-08-08T10:11:45;18.90;99.90
14555;DHT22;7364;50.870;4.722;2023-08-08T10:14:13;19.00;99.90
14555;DHT22;7364;50.870;4.722;2023-08-08T10:16:43;19.10;99.90
14555;DHT22;7364;50.870;4.722;2023-08-08T10:19:11;19.10;99.90
14555;DHT22;7364;50.870;4.722;2023-08-08T10:21:43;19.30;99.90
14555;DHT22;7364;50.870;4.722;2023-08-08T10:24:10;19.40;99.90
14555;DHT22;7364;50.870;4.722;2023-08-08T10:26:52;19.20;99.90
14555;DHT22;7364;50.870;4.722;2023-08-08T10:29:20;19.20;99.90
14555;DHT22;7364;50.870;4.722;2023-08-08T10:31:59;19.30;99.90
14555;DHT22;7364;50.870;4.722;2023-08-08T10:34:38;19.30;99.90
14555;DHT22;7364;50.870;4.722;2023-08-08T10:37:09;19.00;99.90
14555;DHT22;7364;50.870;4.722;2023-08-08T10:39:37;19.00;99.90
14555;DHT22;7364;50.870;4.722;2023-08-08T10:42:18;19.00;99.90
14555;DHT22;7364;50.870;4.722;2023-08-08T10:44:51;18.90;99.90
14555;DHT22;7364;50.870;4.722;2023-08-08T10:47:23;18.70;99.90
14555;DHT22;7364;50.870;4.722;2023-08-08T10:49:59;18.60;99.90
14555;DHT22;7364;50.870;4.722;2023-08-08T10:52:26;18.60;99.90
14555;DHT22;7364;50.870;4.722;2023-08-08T10:54:54;18.60;99.90
14555;DHT22;7364;50.870;4.722;2023-08-08T10:57:24;18.60;99.90
14555;DHT22;7364;50.870;4.722;2023-08-08T10:59:52;18.50;99.90
14555;DHT22;7364;50.870;4.722;2023-08-08T11:02:20;18.50;99.90
14555;DHT22;7364;50.870;4.722;2023-08-08T11:04:49;18.40;99.90
14555;DHT22;7364;50.870;4.722;2023-08-08T11:07:17;18.30;99.90
14555;DHT22;7364;50.870;4.722;2023-08-08T11:09:45;18.40;99.90
14555;DHT22;7364;50.870;4.722;2023-08-08T11:12:15;18.50;99.90
14555;DHT22;7364;50.870;4.722;2023-08-08T11:14:42;18.60;99.90
14555;DHT22;7364;50.870;4.722;2023-08-08T11:17:10;18.80;99.90
14555;DHT22;7364;50.870;4.722;2023-08-08T11:19:40;18.70;99.90
14555;DHT22;7364;50.870;4.722;2023-08-08T11:22:11;18.60;99.90
14555;DHT22;7364;50.870;4.722;2023-08-08T11:24:38;18.70;99.90
14555;DHT22;7364;50.870;4.722;2023-08-08T11:27:05;18.70;99.90
14555;DHT22;7364;50.870;4.722;2023-08-08T11:29:33;18.70;99.90
14555;DHT22;7364;50.870;4.722;2023-08-08T11:32:01;18.70;99.90
14555;DHT22;7364;50.870;4.722;2023-08-08T11:34:31;18.90;99.90
14555;DHT22;7364;50.870;4.722;2023-08-08T11:36:59;19.10;99.90
14555;DHT22;7364;50.870;4.722;2023-08-08T11:39:29;19.10;99.90
14555;DHT22;7364;50.870;4.722;2023-08-08T11:41:56;19.30;99.90
14555;DHT22;7364;50.870;4.722;2023-08-08T11:44:24;19.50;99.90
14555;DHT22;7364;50.870;4.722;2023-08-08T11:46:51;19.50;99.90
14555;DHT22;7364;50.870;4.722;2023-08-08T11:49:18;19.60;99.90
14555;DHT22;7364;50.870;4.722;2023-08-08T11:51:46;19.80;99.90
14555;DHT22;7364;50.870;4.722;2023-08-08T11:54:14;19.90;99.90
14555;DHT22;7364;50.870;4.722;2023-08-08T11:56:43;20.00;99.90
14555;DHT22;7364;50.870;4.722;2023-08-08T11:59:11;19.90;99.90
14555;DHT22;7364;50.870;4.722;2023-08-08T12:01:39;19.90;99.90
14555;DHT22;7364;50.870;4.722;2023-08-08T12:04:08;19.90;99.90
14555;DHT22;7364;50.870;4.722;2023-08-08T12:06:37;20.00;99.90
14555;DHT22;7364;50.870;4.722;2023-08-08T12:09:06;20.00;99.90
14555;DHT22;7364;50.870;4.722;2023-08-08T12:11:35;20.20;99.90
14555;DHT22;7364;50.870;4.722;2023-08-08T12:14:06;20.40;99.90
14555;DHT22;7364;50.870;4.722;2023-08-08T12:16:36;20.30;99.90
14555;DHT22;7364;50.870;4.722;2023-08-08T12:19:07;20.60;99.90
14555;DHT22;7364;50.870;4.722;2023-08-08T12:21:36;20.60;99.90
14555;DHT22;7364;50.870;4.722;2023-08-08T12:24:04;20.60;99.90
14555;DHT22;7364;50.870;4.722;2023-08-08T12:26:32;19.80;99.90
14555;DHT22;7364;50.870;4.722;2023-08-08T12:28:59;19.60;99.90
14555;DHT22;7364;50.870;4.722;2023-08-08T12:31:28;19.80;99.90
14555;DHT22;7364;50.870;4.722;2023-08-08T12:33:55;20.30;99.90
14555;DHT22;7364;50.870;4.722;2023-08-08T12:36:22;21.60;99.90
14555;DHT22;7364;50.870;4.722;2023-08-08T12:38:50;23.10;99.60
14555;DHT22;7364;50.870;4.722;2023-08-08T12:41:17;24.40;98.80
14555;DHT22;7364;50.870;4.722;2023-08-08T12:43:45;24.40;95.60
14555;DHT22;7364;50.870;4.722;2023-08-08T12:46:12;22.90;98.30
14555;DHT22;7364;50.870;4.722;2023-08-08T12:48:41;23.10;98.00
14555;DHT22;7364;50.870;4.722;2023-08-08T12:51:09;23.50;96.90
14555;DHT22;7364;50.870;4.722;2023-08-08T12:53:36;22.80;97.70
14555;DHT22;7364;50.870;4.722;2023-08-08T12:56:04;23.10;97.90
14555;DHT22;7364;50.870;4.722;2023-08-08T12:58:31;24.10;97.00
14555;DHT22;7364;50.870;4.722;2023-08-08T13:00:58;24.60;95.90
14555;DHT22;7364;50.870;4.722;2023-08-08T13:03:26;24.90;95.90
14555;DHT22;7364;50.870;4.722;2023-08-08T13:05:54;25.80;95.40
14555;DHT22;7364;50.870;4.722;2023-08-08T13:08:22;27.50;94.10
14555;DHT22;7364;50.870;4.722;2023-08-08T13:10:49;27.30;91.20
14555;DHT22;7364;50.870;4.722;2023-08-08T13:13:17;26.90;90.90
14555;DHT22;7364;50.870;4.722;2023-08-08T13:15:44;25.50;92.20
14555;DHT22;7364;50.870;4.722;2023-08-08T13:18:11;25.10;93.70
14555;DHT22;7364;50.870;4.722;2023-08-08T13:20:39;25.10;93.30
14555;DHT22;7364;50.870;4.722;2023-08-08T13:23:08;25.30;93.90
14555;DHT22;7364;50.870;4.722;2023-08-08T13:25:35;24.60;93.80
14555;DHT22;7364;50.870;4.722;2023-08-08T13:28:03;23.50;95.90
14555;DHT22;7364;50.870;4.722;2023-08-08T13:30:30;24.50;97.10
14555;DHT22;7364;50.870;4.722;2023-08-08T13:32:59;25.00;94.90
14555;DHT22;7364;50.870;4.722;2023-08-08T13:35:26;25.40;94.70
14555;DHT22;7364;50.870;4.722;2023-08-08T13:37:53;25.30;94.30
14555;DHT22;7364;50.870;4.722;2023-08-08T13:40:23;25.20;94.60
14555;DHT22;7364;50.870;4.722;2023-08-08T13:42:50;24.30;95.80
14555;DHT22;7364;50.870;4.722;2023-08-08T13:45:18;24.20;96.50
14555;DHT22;7364;50.870;4.722;2023-08-08T13:47:46;23.60;96.10
14555;DHT22;7364;50.870;4.722;2023-08-08T13:50:14;23.30;96.60
14555;DHT22;7364;50.870;4.722;2023-08-08T13:52:41;23.30;96.40
14555;DHT22;7364;50.870;4.722;2023-08-08T13:55:09;22.60;96.20
14555;DHT22;7364;50.870;4.722;2023-08-08T13:57:38;22.70;97.30
14555;DHT22;7364;50.870;4.722;2023-08-08T14:00:06;23.60;96.30
14555;DHT22;7364;50.870;4.722;2023-08-08T14:02:37;25.20;94.30
14555;DHT22;7364;50.870;4.722;2023-08-08T14:05:05;24.80;93.60
14555;DHT22;7364;50.870;4.722;2023-08-08T14:07:32;24.20;93.70
14555;DHT22;7364;50.870;4.722;2023-08-08T14:10:01;24.30;94.90
14555;DHT22;7364;50.870;4.722;2023-08-08T14:12:29;23.70;95.00
14555;DHT22;7364;50.870;4.722;2023-08-08T14:14:58;23.70;96.10
14555;DHT22;7364;50.870;4.722;2023-08-08T14:17:26;23.70;95.10
14555;DHT22;7364;50.870;4.722;2023-08-08T14:19:53;23.10;95.50
14555;DHT22;7364;50.870;4.722;2023-08-08T14:22:20;22.60;95.70
14555;DHT22;7364;50.870;4.722;2023-08-08T14:24:48;22.50;96.20
14555;DHT22;7364;50.870;4.722;2023-08-08T14:27:15;22.70;95.70
14555;DHT22;7364;50.870;4.722;2023-08-08T14:29:42;22.40;95.90
14555;DHT22;7364;50.870;4.722;2023-08-08T14:32:11;22.10;96.50
14555;DHT22;7364;50.870;4.722;2023-08-08T14:34:40;22.20;96.40
14555;DHT22;7364;50.870;4.722;2023-08-08T14:37:07;21.90;96.70
14555;DHT22;7364;50.870;4.722;2023-08-08T14:39:34;21.90;97.10
14555;DHT22;7364;50.870;4.722;2023-08-08T14:42:02;21.90;97.10
14555;DHT22;7364;50.870;4.722;2023-08-08T14:44:30;21.90;97.40
14555;DHT22;7364;50.870;4.722;2023-08-08T14:46:57;21.50;97.60
14555;DHT22;7364;50.870;4.722;2023-08-08T14:49:26;21.30;98.20
14555;DHT22;7364;50.870;4.722;2023-08-08T14:51:53;21.30;98.40
14555;DHT22;7364;50.870;4.722;2023-08-08T14:54:20;21.40;98.40
14555;DHT22;7364;50.870;4.722;2023-08-08T14:56:48;21.10;98.60
14555;DHT22;7364;50.870;4.722;2023-08-08T14:59:15;21.00;99.10
14555;DHT22;7364;50.870;4.722;2023-08-08T15:01:42;21.00;99.40
14555;DHT22;7364;50.870;4.722;2023-08-08T15:04:09;21.10;99.50
14555;DHT22;7364;50.870;4.722;2023-08-08T15:06:40;21.20;99.80
14555;DHT22;7364;50.870;4.722;2023-08-08T15:09:08;21.20;99.30
14555;DHT22;7364;50.870;4.722;2023-08-08T15:11:35;21.00;99.30
14555;DHT22;7364;50.870;4.722;2023-08-08T15:14:03;20.80;99.20
14555;DHT22;7364;50.870;4.722;2023-08-08T15:16:30;20.60;99.60
14555;DHT22;7364;50.870;4.722;2023-08-08T15:18:57;20.50;99.90
14555;DHT22;7364;50.870;4.722;2023-08-08T15:21:25;20.50;99.90
14555;DHT22;7364;50.870;4.722;2023-08-08T15:23:53;20.40;99.90
14555;DHT22;7364;50.870;4.722;2023-08-08T15:26:21;20.40;99.90
14555;DHT22;7364;50.870;4.722;2023-08-08T15:28:48;20.40;99.90
14555;DHT22;7364;50.870;4.722;2023-08-08T15:31:16;20.40;99.90
14555;DHT22;7364;50.870;4.722;2023-08-08T15:33:43;20.40;99.90
14555;DHT22;7364;50.870;4.722;2023-08-08T15:36:11;20.40;99.90
14555;DHT22;7364;50.870;4.722;2023-08-08T15:38:38;20.40;99.90
14555;DHT22;7364;50.870;4.722;2023-08-08T15:41:07;20.40;99.90
14555;DHT22;7364;50.870;4.722;2023-08-08T15:43:35;20.30;99.90
14555;DHT22;7364;50.870;4.722;2023-08-08T15:46:03;20.10;99.90
14555;DHT22;7364;50.870;4.722;2023-08-08T15:48:30;20.20;99.90
14555;DHT22;7364;50.870;4.722;2023-08-08T15:50:58;20.20;99.90